Flight Track Log - Related Links

Times and Time Zones

All times are in EDT time to prevent confusion due to time zone crossing. See the AAL832 flight status page for this flight to view local times or setup timezone preferences in your user account.

Time Position Orientation Groundspeed Altitude Reporting Facility
EDT Latitude Longitude Course Direction KTS MPH feet Rate Location/Type
Sun 12:21:10 PM 33.9333 -118.3500 90° East 179 206 2,100  Level Southern California TRACON
Sun 12:22:00 PM 33.8230 -118.1396 140° Southeast  Level FlightAware Approximate
Sun 12:22:14 PM 33.9383 -118.2800 85° East 232 267 4,400  Level Los Angeles Center
Sun 12:23:00 PM 33.7667 -118.0130 90° East  Level FlightAware Approximate
Sun 12:23:16 PM 33.9131 -118.2003 111° Southeast 249 287 6,500  Level Los Angeles Center
Sun 12:24:00 PM 33.7667 -117.8623 90° East  Level FlightAware Approximate
Sun 12:24:18 PM 33.8794 -118.1139 115° Southeast 277 319 9,300  Level Los Angeles Center
Sun 12:25:00 PM 33.7448 -117.7149 97° East  Level FlightAware Approximate
Sun 12:25:20 PM 33.8339 -118.0006 116° Southeast 307 353 11,700  Level Los Angeles Center
Sun 12:26:00 PM 33.7333 -117.5650 90° East  Level FlightAware Approximate
Sun 12:26:22 PM 33.7917 -117.9003 117° Southeast 331 381 14,100  Level Los Angeles Center
Sun 12:27:24 PM 33.7600 -117.7850 108° East 365 420 17,200 2,371 Climbing Los Angeles Center
Sun 12:28:26 PM 33.7528 -117.6575 94° East 387 445 19,000 1,935 Climbing Los Angeles Center
Sun 12:29:28 PM 33.7419 -117.5203 95° East 410 472 21,200 1,984 Climbing Los Angeles Center
Sun 12:30:30 PM 33.7306 -117.3789 95° East 425 489 23,100 1,902 Climbing Los Angeles Center
Sun 12:31:31 PM 33.7194 -117.2339 95° East 437 503 25,100 1,902 Climbing Los Angeles Center
Sun 12:32:33 PM 33.7047 -117.0531 96° East 452 520 27,000 1,597 Climbing Los Angeles Center
Sun 12:33:35 PM 33.6911 -116.8961 96° East 471 542 28,400 1,210 Climbing Los Angeles Center
Sun 12:34:37 PM 33.6775 -116.7269 95° East 492 566 29,500 1,059 Climbing Los Angeles Center
Sun 12:35:51 PM 33.6642 -116.5547 95° East 513 590 30,800 1,577 Climbing Los Angeles Center
Sun 12:36:54 PM 33.6983 -116.3483 79° East 527 606 33,100 1,824 Climbing Los Angeles Center
Sun 12:37:56 PM 33.7444 -116.1789 72° East 530 610 34,600 1,452 Climbing Los Angeles Center
Sun 12:38:58 PM 33.7900 -116.0103 72° East 531 611 36,100 1,452 Climbing Los Angeles Center
Sun 12:40:00 PM 33.8453 -115.8128 71° East 521 600 37,600 1,065 Climbing Los Angeles Center
Sun 12:41:02 PM 33.8897 -115.6461 72° East 521 600 38,300 677 Climbing Los Angeles Center
Sun 12:42:04 PM 33.9344 -115.4797 72° East 523 602 39,000 339 Climbing Los Angeles Center
Sun 12:43:06 PM 33.9781 -115.3133 72° East 521 600 39,000  Level Los Angeles Center
Sun 12:44:08 PM 34.0208 -115.1486 73° East 517 595 39,000  Level Los Angeles Center
Sun 12:45:10 PM 34.0644 -114.9831 72° East 518 596 39,000  Level Los Angeles Center
Sun 12:46:12 PM 34.1150 -114.7844 73° East 517 595 39,000  Level Los Angeles Center
Sun 12:47:14 PM 34.1597 -114.6211 72° East 512 589 39,000  Level Los Angeles Center
Sun 12:48:16 PM 34.2036 -114.4567 72° East 514 592 39,000  Level Los Angeles Center
Sun 12:49:18 PM 34.2483 -114.2911 72° East 518 596 39,000  Level Los Angeles Center
Sun 12:50:21 PM 34.2908 -114.1258 73° East 516 594 39,000  Level Los Angeles Center
Sun 12:51:23 PM 34.3350 -113.9600 72° East 519 597 39,000  Level Los Angeles Center
Sun 12:52:31 PM 34.3906 -113.7467 72° East 520 598 39,000  Level Albuquerque Center
Sun 12:53:33 PM 34.4303 -113.5917 73° East 522 601 39,000  Level Albuquerque Center
Sun 12:54:35 PM 34.4731 -113.4258 73° East 521 600 39,000  Level Albuquerque Center
Sun 12:55:37 PM 34.5233 -113.2250 73° East 523 602 39,000  Level Albuquerque Center
Sun 12:56:39 PM 34.5647 -113.0569 73° East 524 603 39,000  Level Albuquerque Center
Sun 12:57:41 PM 34.6050 -112.8897 74° East 523 602 39,000  Level Albuquerque Center
Sun 12:58:43 PM 34.6469 -112.7228 73° East 522 601 39,000  Level Albuquerque Center
Sun 12:59:45 PM 34.6950 -112.5244 74° East 518 596 39,000  Level Albuquerque Center
Sun 01:00:47 PM 34.7342 -112.3581 74° East 519 597 39,000  Level Albuquerque Center
Sun 01:01:49 PM 34.7711 -112.1889 75° East 521 600 39,000  Level Albuquerque Center
Sun 01:02:51 PM 34.8075 -112.0214 75° East 520 598 39,000  Level Albuquerque Center
Sun 01:03:53 PM 34.8458 -111.8522 75° East 522 601 39,000  Level Albuquerque Center
Sun 01:04:55 PM 34.8869 -111.6644 75° East 519 597 39,000  Level Albuquerque Center
Sun 01:05:57 PM 34.9256 -111.4925 75° East 523 602 39,000  Level Albuquerque Center
Sun 01:06:59 PM 34.9625 -111.3225 75° East 520 598 39,000  Level Albuquerque Center
Sun 01:08:01 PM 34.9994 -111.1511 75° East 521 600 39,000  Level Albuquerque Center
Sun 01:09:03 PM 35.0436 -110.9458 75° East 522 601 39,000  Level Albuquerque Center
Sun 01:10:05 PM 35.0803 -110.7794 75° East 523 602 39,000  Level Albuquerque Center
Sun 01:11:07 PM 35.1211 -110.5869 75° East 524 603 39,000  Level Albuquerque Center
Sun 01:12:09 PM 35.1561 -110.4217 75° East 524 603 39,000  Level Albuquerque Center
Sun 01:13:11 PM 35.1983 -110.2297 75° East 525 604 39,000  Level Albuquerque Center
Sun 01:14:13 PM 35.2336 -110.0650 75° East 525 604 39,000  Level Albuquerque Center
Sun 01:15:15 PM 35.2733 -109.8728 76° East 524 603 39,000  Level Albuquerque Center
Sun 01:16:17 PM 35.3061 -109.7053 76° East 527 606 39,000  Level Albuquerque Center
Sun 01:17:19 PM 35.3400 -109.5403 76° East 527 606 39,000  Level Albuquerque Center
Sun 01:18:21 PM 35.3803 -109.3469 76° East 525 604 39,000  Level Albuquerque Center
Sun 01:19:23 PM 35.4142 -109.1844 76° East 520 598 39,000  Level Albuquerque Center
Sun 01:20:26 PM 35.4514 -108.9964 76° East 513 590 39,000  Level Albuquerque Center
Sun 01:21:28 PM 35.4869 -108.8361 75° East 512 589 39,000  Level Albuquerque Center
Sun 01:22:30 PM 35.5367 -108.6528 72° East 511 588 39,000  Level Albuquerque Center
Sun 01:23:32 PM 35.5803 -108.4953 71° East 511 588 39,000  Level Albuquerque Center
Sun 01:24:34 PM 35.6292 -108.3097 72° East 513 590 39,000  Level Albuquerque Center
Sun 01:25:36 PM 35.6714 -108.1514 72° East 512 589 39,000  Level Albuquerque Center
Sun 01:26:38 PM 35.7208 -107.9644 72° East 514 592 39,000  Level Albuquerque Center
Sun 01:27:40 PM 35.7631 -107.8047 72° East 514 592 39,000  Level Albuquerque Center
Sun 01:28:42 PM 35.8108 -107.6167 73° East 516 594 39,000  Level Albuquerque Center
Sun 01:29:44 PM 35.8522 -107.4567 72° East 514 592 39,000  Level Albuquerque Center
Sun 01:30:46 PM 35.9003 -107.2700 72° East 512 589 39,000  Level Albuquerque Center
Sun 01:31:48 PM 35.9414 -107.1097 72° East 511 588 39,000  Level Albuquerque Center
Sun 01:32:50 PM 35.9842 -106.9436 72° East 507 583 39,000  Level Albuquerque Center
Sun 01:33:52 PM 36.0272 -106.7756 72° East 509 586 39,000  Level Albuquerque Center
Sun 01:34:54 PM 36.0692 -106.6094 73° East 506 582 39,000  Level Albuquerque Center
Sun 01:35:56 PM 36.1114 -106.4450 72° East 502 578 39,000  Level Albuquerque Center
Sun 01:36:58 PM 36.1600 -106.2472 73° East 500 575 39,000  Level Albuquerque Center
Sun 01:38:00 PM 36.2017 -106.0844 72° East 497 572 39,000  Level Albuquerque Center
Sun 01:39:02 PM 36.2475 -105.9031 73° East 497 572 39,000  Level Albuquerque Center
Sun 01:40:04 PM 36.2792 -105.7542 75° East 499 574 39,000  Level Albuquerque Center
Sun 01:41:06 PM 36.3183 -105.5914 73° East 495 570 39,000  Level Albuquerque Center
Sun 01:42:08 PM 36.3614 -105.4106 73° East 494 568 39,000  Level Albuquerque Center
Sun 01:43:11 PM 36.4011 -105.2450 73° East 493 567 39,000  Level Albuquerque Center
Sun 01:44:12 PM 36.4389 -105.0814 74° East 491 565 39,000  Level Albuquerque Center
Sun 01:45:14 PM 36.4786 -104.9164 73° East 492 566 39,000  Level Albuquerque Center
Sun 01:46:16 PM 36.5392 -104.7303 68° East 493 567 39,000  Level Albuquerque Center
Sun 01:47:18 PM 36.5989 -104.5744 64° Northeast 493 567 39,000  Level Albuquerque Center
Sun 01:48:20 PM 36.6575 -104.4169 65° Northeast 496 571 39,000  Level Albuquerque Center
Sun 01:49:22 PM 36.7181 -104.2567 65° Northeast 494 568 39,000  Level Albuquerque Center
Sun 01:50:24 PM 36.7739 -104.1069 65° Northeast 497 572 39,000  Level Albuquerque Center
Sun 01:51:26 PM 36.8367 -103.9328 66° East 496 571 39,000  Level Albuquerque Center
Sun 01:52:28 PM 36.8903 -103.7819 66° East 497 572 39,000  Level Albuquerque Center
Sun 01:53:30 PM 36.9533 -103.6067 66° East 497 572 39,000  Level Albuquerque Center
Sun 01:54:32 PM 37.0069 -103.4567 66° East 496 571 39,000  Level Albuquerque Center
Sun 01:55:34 PM 37.0692 -103.2792 66° East 500 575 39,000  Level Albuquerque Center
Sun 01:56:36 PM 37.1211 -103.1269 67° East 500 575 39,000  Level Albuquerque Center
Sun 01:57:38 PM 37.1833 -102.9481 66° East 502 578 39,000  Level Albuquerque Center
Sun 01:58:40 PM 37.2361 -102.7950 67° East 502 578 39,000  Level Albuquerque Center
Sun 01:59:42 PM 37.2972 -102.6178 67° East 497 572 39,000  Level Albuquerque Center
Sun 02:00:44 PM 37.3469 -102.4650 68° East 494 568 39,000  Level Albuquerque Center
Sun 02:01:46 PM 37.4067 -102.2875 67° East 494 568 39,000  Level Albuquerque Center
Sun 02:02:48 PM 37.4608 -102.1289 67° East 490 564 39,000  Level Albuquerque Center
Sun 02:03:50 PM 37.5111 -101.9783 67° East 488 562 39,000  Level Albuquerque Center
Sun 02:05:01 PM 37.5767 -101.7783 67° East 485 558 39,000  Level Kansas City Center
Sun 02:06:03 PM 37.6253 -101.6286 68° East 481 554 39,000  Level Kansas City Center
Sun 02:07:05 PM 37.6831 -101.4558 67° East 479 551 39,000  Level Kansas City Center
Sun 02:08:07 PM 37.7317 -101.3092 67° East 474 545 39,000  Level Kansas City Center
Sun 02:09:09 PM 37.7803 -101.1611 67° East 473 544 39,000  Level Kansas City Center
Sun 02:10:11 PM 37.8364 -100.9867 68° East 474 545 39,000  Level Kansas City Center
Sun 02:11:13 PM 37.8844 -100.8350 68° East 476 548 39,000  Level Kansas City Center
Sun 02:12:15 PM 37.9411 -100.6583 68° East 479 551 39,000  Level Kansas City Center
Sun 02:13:17 PM 37.9919 -100.5089 67° East 480 552 39,000  Level Kansas City Center
Sun 02:14:19 PM 38.0428 -100.3589 67° East 482 555 39,000  Level Kansas City Center
Sun 02:15:21 PM 38.1028 -100.1836 66° East 484 557 39,000  Level Kansas City Center
Sun 02:16:23 PM 38.1539 -100.0311 67° East 487 560 39,000  Level Kansas City Center
Sun 02:17:25 PM 38.2131 -99.8533 67° East 490 564 39,000  Level Kansas City Center
Sun 02:18:27 PM 38.2647 -99.7008 67° East 490 564 39,000  Level Kansas City Center
Sun 02:19:29 PM 38.3228 -99.5222 67° East 489 563 39,000  Level Kansas City Center
Sun 02:20:31 PM 38.3753 -99.3611 67° East 486 559 39,000  Level Kansas City Center
Sun 02:21:33 PM 38.4267 -99.2028 67° East 483 556 39,000  Level Kansas City Center
Sun 02:22:35 PM 38.4783 -99.0450 67° East 480 552 39,000 242 Level Kansas City Center
Sun 02:23:37 PM 38.5300 -98.8864 67° East 481 554 39,500 629 Climbing Kansas City Center
Sun 02:24:39 PM 38.5817 -98.7253 68° East 487 560 40,300 726 Climbing Kansas City Center
Sun 02:25:41 PM 38.6311 -98.5672 68° East 480 552 41,000 339 Climbing Kansas City Center
Sun 02:26:43 PM 38.6786 -98.4156 68° East 461 531 41,000  Level Kansas City Center
Sun 02:27:45 PM 38.7347 -98.2342 68° East 456 525 41,000  Level Kansas City Center
Sun 02:28:47 PM 38.7822 -98.0828 68° East 457 526 41,000  Level Kansas City Center
Sun 02:29:49 PM 38.8303 -97.9283 68° East 462 532 41,000  Level Kansas City Center
Sun 02:30:51 PM 38.8783 -97.7744 68° East 464 534 41,000  Level Kansas City Center
Sun 02:31:53 PM 38.9314 -97.6017 68° East 465 535 41,000  Level Kansas City Center
Sun 02:32:55 PM 38.9742 -97.4325 72° East 471 542 41,000  Level Kansas City Center
Sun 02:33:57 PM 39.0156 -97.2747 71° East 461 531 41,000  Level Kansas City Center
Sun 02:34:59 PM 39.0550 -97.1264 71° East 459 528 41,000  Level Kansas City Center
Sun 02:36:00 PM 39.0958 -96.9775 70° East 459 528 41,000  Level Kansas City Center
Sun 02:37:02 PM 39.1417 -96.8022 71° East 462 532 41,000  Level Kansas City Center
Sun 02:38:04 PM 39.1778 -96.6506 73° East 462 532 41,000  Level Kansas City Center
Sun 02:39:06 PM 39.2217 -96.4750 72° East 460 529 41,000  Level Kansas City Center
Sun 02:40:08 PM 39.2586 -96.3250 72° East 458 527 41,000  Level Kansas City Center
Sun 02:41:10 PM 39.3047 -96.1467 71° East 460 529 41,000  Level Kansas City Center
Sun 02:42:12 PM 39.3397 -96.0000 73° East 456 525 41,000  Level Kansas City Center
Sun 02:43:14 PM 39.3839 -95.8250 72° East 456 525 41,000  Level Kansas City Center
Sun 02:44:16 PM 39.4219 -95.6725 72° East 463 533 41,000  Level Kansas City Center
Sun 02:45:18 PM 39.4589 -95.5225 72° East 455 524 41,000  Level Kansas City Center
Sun 02:46:20 PM 39.5017 -95.3408 73° East 454 522 41,000  Level Kansas City Center
Sun 02:47:22 PM 39.5406 -95.1839 72° East 457 526 41,000  Level Kansas City Center
Sun 02:48:24 PM 39.5806 -95.0183 73° East 455 524 41,000  Level Kansas City Center
Sun 02:49:25 PM 39.6172 -94.8686 72° East 454 522 41,000  Level Kansas City Center
Sun 02:50:27 PM 39.6550 -94.7197 72° East 452 520 41,000  Level Kansas City Center
Sun 02:51:29 PM 39.6967 -94.5475 72° East 448 516 41,000  Level Kansas City Center
Sun 02:52:31 PM 39.7311 -94.4006 73° East 445 512 41,000  Level Kansas City Center
Sun 02:53:33 PM 39.7711 -94.2294 73° East 444 511 41,000  Level Kansas City Center
Sun 02:54:35 PM 39.8053 -94.0814 73° East 445 512 41,000  Level Kansas City Center
Sun 02:55:37 PM 39.8411 -93.9131 74° East 448 516 41,000  Level Kansas City Center
Sun 02:56:39 PM 39.8761 -93.7597 73° East 444 511 41,000  Level Kansas City Center
Sun 02:57:41 PM 39.9133 -93.6061 72° East 449 517 41,000  Level Kansas City Center
Sun 02:58:43 PM 39.9478 -93.4522 74° East 448 516 41,000  Level Kansas City Center
Sun 02:59:45 PM 39.9889 -93.2669 74° East 448 516 41,000  Level Kansas City Center
Sun 03:00:46 PM 40.0219 -93.1119 74° East 448 516 41,000  Level Kansas City Center
Sun 03:01:48 PM 40.0561 -92.9575 74° East 448 516 41,000  Level Kansas City Center
Sun 03:02:50 PM 40.0917 -92.7919 74° East 442 509 41,000  Level Kansas City Center
Sun 03:03:52 PM 40.1231 -92.6453 74° East 439 505 41,000  Level Kansas City Center
Sun 03:04:54 PM 40.1750 -92.4814 67° East 436 502 41,000  Level Kansas City Center
Sun 03:05:56 PM 40.2256 -92.3461 64° Northeast 433 498 41,000  Level Kansas City Center
Sun 03:06:58 PM 40.2756 -92.2039 65° Northeast 436 502 41,000  Level Kansas City Center
Sun 03:08:00 PM 40.3258 -92.0619 65° Northeast 436 502 41,000 -48 Level Kansas City Center
Sun 03:09:02 PM 40.3861 -91.8903 65° Northeast 437 503 40,900 -968 Descending Kansas City Center
Sun 03:10:04 PM 40.4367 -91.7450 65° Northeast 440 506 39,000 -2,032 Descending Kansas City Center
Sun 03:11:06 PM 40.4872 -91.5981 66° East 444 511 36,700 -2,661 Descending Kansas City Center
Sun 03:12:08 PM 40.5336 -91.4611 66° East 420 483 33,500 -1,790 Descending Kansas City Center
Sun 03:13:10 PM 40.5806 -91.3158 67° East 430 495 33,000 -242 Descending Kansas City Center
Sun 03:14:12 PM 40.6353 -91.1644 64° Northeast 434 499 33,000 -1,113 Level Kansas City Center
Sun 03:15:14 PM 40.6947 -90.9922 65° Northeast 431 496 30,700 -2,031 Descending Kansas City Center
Sun 03:16:22 PM 40.7436 -90.8492 66° East 428 493 28,600 -1,878 Descending Chicago Center
Sun 03:17:25 PM 40.7914 -90.7083 66° East 422 486 26,600 -1,728 Descending Chicago Center
Sun 03:18:27 PM 40.8475 -90.5389 66° East 417 480 25,000 -1,258 Descending Chicago Center
Sun 03:19:29 PM 40.8944 -90.4011 66° East 410 472 24,000 -484 Descending Chicago Center
Sun 03:20:31 PM 40.9406 -90.2619 66° East 410 472 24,000  Level Chicago Center
Sun 03:21:33 PM 40.9817 -90.1378 66° East 408 470 24,000  Level Chicago Center
Sun 03:22:35 PM 41.0333 -89.9844 66° East 410 472 24,000  Level Chicago Center
Sun 03:23:37 PM 41.0786 -89.8433 67° East 412 474 24,000  Level Chicago Center
Sun 03:24:39 PM 41.1242 -89.7039 67° East 411 473 24,000  Level Chicago Center
Sun 03:25:41 PM 41.1717 -89.5644 66° East 414 476 24,000 -823 Level Chicago Center
Sun 03:26:43 PM 41.2367 -89.4064 61° Northeast 409 471 22,300 -1,984 Descending Chicago Center
Sun 03:27:45 PM 41.2883 -89.2761 62° Northeast 401 461 19,900 -2,177 Descending Chicago Center
Sun 03:28:47 PM 41.3381 -89.1503 62° Northeast 385 443 17,800 -2,129 Descending Chicago Center
Sun 03:29:49 PM 41.3836 -89.0319 63° Northeast 365 420 15,500 -1,920 Descending Chicago Center
Sun 03:30:52 PM 41.4294 -88.9169 62° Northeast 358 412 13,800 -1,872 Descending Chicago Center
Sun 03:31:54 PM 41.4725 -88.8067 62° Northeast 342 394 11,600 -1,355 Descending Chicago Center
Sun 03:32:56 PM 41.5233 -88.6775 62° Northeast 331 381 11,000 -290 Descending Chicago Center
Sun 03:33:58 PM 41.5606 -88.5817 63° Northeast 302 348 11,000 -532 Level Chicago Center
Sun 03:35:00 PM 41.5903 -88.4917 66° East 271 312 9,900 -1,306 Descending Chicago Center
Sun 03:36:02 PM 41.6211 -88.4019 65° Northeast 267 307 8,300 -677 Descending Chicago Center
Sun 03:39:08 PM 41.7322 -88.1564 59° Northeast 225 259 7,100 -581 Descending Chicago Center
Sun 03:40:10 PM 41.7789 -88.1044 40° Northeast 219 252 5,900 -1,296 Descending Chicago Center
Sun 03:41:13 PM 41.8231 -88.0542 40° Northeast 213 245 4,400 -1,152 Descending Chicago Center
Sun 03:42:15 PM 41.8639 -88.0064 41° Northeast 206 237 3,500 -871 Descending Chicago Center

Login

Don't have an account? Register now (free) for customized features, flight alerts, and more!